createdAt,value
2023-02-08T00:01:45.349Z,14.50
2023-02-08T00:04:11.064Z,15.13
2023-02-08T00:06:36.810Z,16.43
2023-02-08T00:09:03.172Z,13.80
2023-02-08T00:11:29.260Z,17.27
2023-02-08T00:13:55.021Z,16.73
2023-02-08T00:16:20.898Z,14.30
2023-02-08T00:18:46.715Z,15.97
2023-02-08T00:21:14.066Z,16.17
2023-02-08T00:23:40.083Z,15.37
2023-02-08T00:26:05.942Z,15.07
2023-02-08T00:28:31.743Z,16.97
2023-02-08T00:30:57.695Z,14.43
2023-02-08T00:33:23.500Z,16.03
2023-02-08T00:35:49.322Z,16.03
2023-02-08T00:38:15.066Z,15.53
2023-02-08T00:40:41.050Z,16.40
2023-02-08T00:43:06.952Z,15.27
2023-02-08T00:45:32.804Z,16.93
2023-02-08T00:47:58.784Z,15.90
2023-02-08T00:50:24.507Z,16.30
2023-02-08T00:52:50.232Z,16.47
2023-02-08T00:55:16.086Z,14.77
2023-02-08T00:57:41.820Z,16.37
2023-02-08T01:00:08.464Z,14.27
2023-02-08T01:02:34.235Z,15.83
2023-02-08T01:04:59.995Z,17.30
2023-02-08T01:07:25.785Z,15.70
2023-02-08T01:09:51.548Z,17.10
2023-02-08T01:12:17.350Z,15.10
2023-02-08T01:14:43.114Z,15.07
2023-02-08T01:17:08.921Z,16.33
2023-02-08T01:19:34.820Z,16.40
2023-02-08T01:22:00.515Z,16.97
2023-02-08T01:24:26.268Z,15.67
2023-02-08T01:26:51.998Z,14.63
2023-02-08T01:29:17.843Z,16.03
2023-02-08T01:31:44.407Z,15.20
2023-02-08T01:34:10.820Z,18.07
2023-02-08T01:36:37.339Z,16.77
2023-02-08T01:39:03.741Z,16.27
2023-02-08T01:41:34.173Z,16.60
2023-02-08T01:46:25.558Z,15.33
2023-02-08T01:48:52.639Z,16.67
2023-02-08T01:51:20.685Z,16.23
2023-02-08T01:53:48.108Z,16.90
2023-02-08T01:56:17.239Z,17.13
2023-02-08T01:58:44.524Z,16.17
2023-02-08T02:01:11.027Z,16.50
2023-02-08T02:03:36.940Z,15.73
2023-02-08T02:06:05.878Z,15.70
2023-02-08T02:08:31.617Z,14.47
2023-02-08T02:10:57.422Z,15.43
2023-02-08T02:13:24.259Z,16.00
2023-02-08T02:15:50.335Z,14.97
2023-02-08T02:18:26.835Z,15.07
2023-02-08T02:20:52.551Z,15.13
2023-02-08T02:23:18.250Z,17.77
2023-02-08T02:26:19.374Z,16.17
2023-02-08T02:28:54.792Z,15.97
2023-02-08T02:31:29.422Z,15.37
2023-02-08T02:33:55.175Z,16.97
2023-02-08T02:36:33.039Z,17.17
2023-02-08T02:39:13.666Z,17.03
2023-02-08T02:42:01.171Z,15.83
2023-02-08T02:44:29.677Z,17.33
2023-02-08T02:47:00.549Z,16.90
2023-02-08T02:49:30.071Z,18.60
2023-02-08T02:51:58.347Z,16.65
2023-02-08T02:54:26.852Z,17.33
2023-02-08T02:56:55.596Z,17.67
2023-02-08T02:59:22.113Z,17.67
2023-02-08T03:01:48.163Z,15.97
2023-02-08T03:04:18.359Z,16.50
2023-02-08T03:06:44.050Z,17.10
2023-02-08T03:09:28.609Z,17.53
2023-02-08T03:12:04.059Z,16.67
2023-02-08T03:14:34.294Z,20.03
2023-02-08T03:17:02.918Z,18.75
2023-02-08T03:19:35.853Z,17.47
2023-02-08T03:22:10.872Z,18.33
2023-02-08T03:24:50.428Z,18.27
2023-02-08T03:27:16.120Z,17.35
2023-02-08T03:30:07.908Z,18.17
2023-02-08T03:32:43.015Z,17.10
2023-02-08T03:35:16.529Z,18.50
2023-02-08T03:37:42.251Z,18.00
2023-02-08T03:40:34.261Z,18.50
2023-02-08T03:43:02.524Z,17.73
2023-02-08T03:45:30.749Z,15.90
2023-02-08T03:47:58.969Z,17.53
2023-02-08T03:50:24.750Z,17.63
2023-02-08T03:52:51.554Z,17.40
2023-02-08T03:55:19.575Z,18.23
2023-02-08T03:57:45.269Z,17.63
2023-02-08T04:00:13.877Z,15.87
2023-02-08T04:02:51.653Z,16.40
2023-02-08T04:05:17.983Z,17.93
2023-02-08T04:07:43.714Z,19.37
2023-02-08T04:10:09.492Z,16.83
2023-02-08T04:12:35.262Z,17.70
2023-02-08T04:15:00.981Z,17.40
2023-02-08T04:17:26.740Z,18.50
2023-02-08T04:19:52.458Z,17.47
2023-02-08T04:22:18.209Z,17.43
2023-02-08T04:24:44.026Z,19.73
2023-02-08T04:27:09.810Z,18.87
2023-02-08T04:29:35.535Z,24.00
2023-02-08T04:32:01.954Z,21.27
2023-02-08T04:34:27.691Z,18.60
2023-02-08T04:36:53.405Z,18.00
2023-02-08T04:39:19.135Z,21.23
2023-02-08T04:41:44.942Z,17.97
2023-02-08T04:44:10.653Z,18.17
2023-02-08T04:46:36.542Z,18.57
2023-02-08T04:49:02.292Z,17.80
2023-02-08T04:51:28.024Z,19.20
2023-02-08T04:53:53.735Z,17.87
2023-02-08T04:56:19.446Z,17.30
2023-02-08T04:58:45.897Z,19.87
2023-02-08T05:01:11.713Z,20.03
2023-02-08T05:03:37.608Z,20.90
2023-02-08T05:06:03.375Z,18.93
2023-02-08T05:08:29.136Z,18.07
2023-02-08T05:10:54.848Z,18.00
2023-02-08T05:13:20.675Z,17.17
2023-02-08T05:15:46.420Z,18.63
2023-02-08T05:18:12.156Z,19.70
2023-02-08T05:20:37.978Z,19.33
2023-02-08T05:23:05.328Z,19.77
2023-02-08T05:25:31.119Z,18.67
2023-02-08T05:27:56.876Z,18.73
2023-02-08T05:30:22.675Z,20.57
2023-02-08T05:32:48.441Z,20.10
2023-02-08T05:35:14.266Z,19.90
2023-02-08T05:37:40.427Z,22.50
2023-02-08T05:40:06.551Z,18.70
2023-02-08T05:42:32.249Z,20.23
2023-02-08T05:44:58.007Z,18.70
2023-02-08T05:47:23.821Z,18.80
2023-02-08T05:49:49.601Z,20.87
2023-02-08T05:52:15.360Z,19.57
2023-02-08T05:54:41.079Z,18.23
2023-02-08T05:57:06.904Z,18.77
2023-02-08T05:59:33.265Z,19.67
2023-02-08T06:01:59.291Z,20.40
2023-02-08T06:04:25.030Z,19.70
2023-02-08T06:06:50.851Z,21.43
2023-02-08T06:09:16.819Z,21.10
2023-02-08T06:11:42.687Z,20.77
2023-02-08T06:14:08.526Z,20.93
2023-02-08T06:16:34.295Z,20.27
2023-02-08T06:19:00.221Z,20.40
2023-02-08T06:21:27.852Z,19.87
2023-02-08T06:23:53.934Z,22.20
2023-02-08T06:26:19.777Z,22.13
2023-02-08T06:28:46.709Z,22.10
2023-02-08T06:31:12.483Z,23.43
2023-02-08T06:33:38.782Z,22.43
2023-02-08T06:36:04.867Z,23.00
2023-02-08T06:38:30.678Z,21.70
2023-02-08T06:40:56.928Z,23.17
2023-02-08T06:43:22.756Z,21.83
2023-02-08T06:45:48.659Z,24.00
2023-02-08T06:48:15.045Z,22.20
2023-02-08T06:50:41.381Z,23.57
2023-02-08T06:53:07.330Z,21.03
2023-02-08T06:55:33.176Z,23.10
2023-02-08T06:57:59.434Z,22.07
2023-02-08T07:00:25.396Z,21.07
2023-02-08T07:02:52.096Z,22.90
2023-02-08T07:05:22.853Z,21.97
2023-02-08T07:07:48.711Z,23.07
2023-02-08T07:10:15.115Z,21.10
2023-02-08T07:12:40.977Z,22.30
2023-02-08T07:15:07.232Z,21.53
2023-02-08T07:17:33.322Z,22.93
2023-02-08T07:19:59.324Z,22.90
2023-02-08T07:22:25.509Z,22.17
2023-02-08T07:24:51.383Z,22.53
2023-02-08T07:27:17.361Z,21.63
2023-02-08T07:29:43.273Z,21.43
2023-02-08T07:32:09.309Z,20.87
2023-02-08T07:34:36.504Z,22.70
2023-02-08T07:37:02.325Z,20.27
2023-02-08T07:39:32.357Z,23.33
2023-02-08T07:41:58.257Z,20.15
2023-02-08T07:44:24.328Z,21.17
2023-02-08T07:46:50.188Z,21.43
2023-02-08T07:49:15.927Z,22.27
2023-02-08T07:51:41.785Z,20.13
2023-02-08T07:54:07.635Z,20.07
2023-02-08T07:56:33.454Z,19.73
2023-02-08T07:58:59.377Z,20.50
2023-02-08T08:01:25.295Z,22.03
2023-02-08T08:03:51.524Z,21.40
2023-02-08T08:06:18.353Z,22.73
2023-02-08T08:08:47.895Z,22.07
2023-02-08T08:11:14.423Z,21.35
2023-02-08T08:13:40.355Z,22.73
2023-02-08T08:16:06.446Z,22.20
2023-02-08T08:18:32.328Z,20.93
2023-02-08T08:20:58.073Z,21.07
2023-02-08T08:23:23.970Z,22.93
2023-02-08T08:25:49.917Z,20.40
2023-02-08T08:28:15.824Z,23.60
2023-02-08T08:30:43.046Z,22.43
2023-02-08T08:33:09.125Z,21.83
2023-02-08T08:35:38.008Z,20.40
2023-02-08T08:38:03.830Z,22.20
2023-02-08T08:40:29.679Z,20.87
2023-02-08T08:42:56.413Z,24.63
2023-02-08T08:45:22.506Z,23.10
2023-02-08T08:47:48.289Z,21.57
2023-02-08T08:50:14.225Z,21.13
2023-02-08T08:52:40.361Z,22.70
2023-02-08T08:55:06.778Z,22.13
2023-02-08T08:57:32.583Z,20.97
2023-02-08T08:59:58.697Z,19.93
2023-02-08T09:02:24.486Z,21.23
2023-02-08T09:04:59.348Z,19.73
2023-02-08T09:07:25.197Z,20.50
2023-02-08T09:09:50.950Z,21.43
2023-02-08T09:12:16.858Z,22.43
2023-02-08T09:14:44.256Z,22.17
2023-02-08T09:17:10.872Z,20.97
2023-02-08T09:19:36.714Z,22.87
2023-02-08T09:22:02.576Z,24.73
2023-02-08T09:24:28.294Z,21.53
2023-02-08T09:26:54.285Z,21.47
2023-02-08T09:29:20.248Z,22.53
2023-02-08T09:31:46.232Z,22.53
2023-02-08T09:34:12.112Z,21.57
2023-02-08T09:36:39.088Z,22.27
2023-02-08T09:39:07.329Z,22.60
2023-02-08T09:41:51.925Z,23.40
2023-02-08T09:44:44.456Z,22.13
2023-02-08T09:47:28.758Z,23.50
2023-02-08T09:50:04.148Z,22.97
2023-02-08T09:52:38.783Z,24.00
2023-02-08T09:55:18.037Z,23.80
2023-02-08T09:57:44.596Z,22.17
2023-02-08T10:00:15.655Z,23.27
2023-02-08T10:02:43.162Z,21.53
2023-02-08T10:05:14.152Z,22.33
2023-02-08T10:07:40.675Z,24.00
2023-02-08T10:10:36.027Z,23.90
2023-02-08T10:13:18.731Z,21.43
2023-02-08T10:15:50.026Z,22.77
2023-02-08T10:18:38.462Z,23.07
2023-02-08T10:21:15.680Z,22.47
2023-02-08T10:23:56.719Z,23.03
2023-02-08T10:26:22.675Z,22.17
2023-02-08T10:29:03.879Z,24.00
2023-02-08T10:31:39.714Z,23.67
2023-02-08T10:34:24.725Z,22.93
2023-02-08T10:36:50.921Z,22.77
2023-02-08T10:39:18.277Z,22.63
2023-02-08T10:41:45.523Z,22.90
2023-02-08T10:44:20.113Z,23.43
2023-02-08T10:47:01.402Z,24.33
2023-02-08T10:49:40.124Z,24.23
2023-02-08T10:52:06.142Z,21.33
2023-02-08T10:54:34.711Z,22.80
2023-02-08T10:57:04.983Z,23.70
2023-02-08T10:59:46.033Z,23.42
2023-02-08T11:02:21.080Z,24.03
2023-02-08T11:04:59.837Z,21.60
2023-02-08T11:07:25.578Z,23.83
2023-02-08T11:09:51.433Z,24.17
2023-02-08T11:12:21.083Z,23.57
2023-02-08T11:14:57.010Z,23.83
2023-02-08T11:17:33.433Z,23.70
2023-02-08T11:19:59.534Z,23.03
2023-02-08T11:22:26.874Z,24.87
2023-02-08T11:24:56.263Z,25.47
2023-02-08T11:27:28.200Z,25.63
2023-02-08T11:30:12.429Z,23.23
2023-02-08T11:32:38.746Z,23.80
2023-02-08T11:35:23.895Z,24.87
2023-02-08T11:37:55.122Z,25.70
2023-02-08T11:40:22.914Z,25.67
2023-02-08T11:42:49.022Z,25.70
2023-02-08T11:45:19.603Z,26.10
2023-02-08T11:50:21.004Z,24.27
2023-02-08T11:52:50.938Z,24.27
2023-02-08T11:55:16.921Z,25.67
2023-02-08T11:58:00.225Z,26.10
2023-02-08T12:00:27.723Z,27.57
2023-02-08T12:02:58.263Z,23.67
2023-02-08T12:05:27.684Z,24.95
2023-02-08T12:08:06.274Z,24.83
2023-02-08T12:10:42.980Z,26.80
2023-02-08T12:13:23.507Z,24.27
2023-02-08T12:16:08.974Z,23.45
2023-02-08T12:18:34.786Z,23.33
2023-02-08T12:21:05.100Z,25.23
2023-02-08T12:23:43.156Z,24.75
2023-02-08T12:26:08.922Z,24.03
2023-02-08T12:28:53.266Z,23.67
2023-02-08T12:31:31.348Z,22.87
2023-02-08T12:34:09.429Z,23.90
2023-02-08T12:36:37.978Z,25.87
2023-02-08T12:39:41.371Z,24.00
2023-02-08T12:42:09.988Z,23.97
2023-02-08T12:44:54.919Z,24.03
2023-02-08T12:47:39.309Z,23.37
2023-02-08T12:50:16.438Z,23.87
2023-02-08T12:52:52.592Z,24.10
2023-02-08T12:55:22.997Z,23.90
2023-02-08T12:58:15.344Z,22.38
2023-02-08T13:00:42.354Z,23.73
2023-02-08T13:03:14.361Z,22.57
2023-02-08T13:06:03.203Z,22.47
2023-02-08T13:08:36.885Z,24.47
2023-02-08T13:11:26.430Z,22.40
2023-02-08T13:13:56.195Z,23.57
2023-02-08T13:16:24.264Z,22.83
2023-02-08T13:18:53.994Z,23.07
2023-02-08T13:21:22.272Z,23.33
2023-02-08T13:23:52.903Z,21.13
2023-02-08T13:26:26.248Z,21.37
2023-02-08T13:28:53.171Z,21.23
2023-02-08T13:31:24.447Z,21.93
2023-02-08T13:34:01.378Z,21.57
2023-02-08T13:36:41.760Z,20.70
2023-02-08T13:39:22.238Z,21.30
2023-02-08T13:41:51.352Z,22.45
2023-02-08T13:44:19.546Z,23.37
2023-02-08T13:46:47.323Z,21.80
2023-02-08T13:49:32.105Z,20.50
2023-02-08T13:51:58.189Z,19.93
2023-02-08T13:54:24.083Z,16.90
2023-02-08T13:56:51.552Z,19.63
2023-02-08T13:59:34.696Z,20.40
2023-02-08T14:02:13.165Z,20.07
2023-02-08T14:04:39.820Z,17.83
2023-02-08T14:07:15.631Z,16.87
2023-02-08T14:09:53.110Z,18.23
2023-02-08T14:12:33.727Z,18.83
2023-02-08T14:15:15.920Z,18.07
2023-02-08T14:17:44.287Z,18.27
2023-02-08T14:20:17.264Z,20.93
2023-02-08T14:22:48.830Z,19.80
2023-02-08T14:25:19.110Z,20.97
2023-02-08T14:27:58.081Z,19.83
2023-02-08T14:30:29.552Z,20.40
2023-02-08T14:33:05.837Z,20.63
2023-02-08T14:35:33.559Z,18.70
2023-02-08T14:38:18.087Z,21.20
2023-02-08T14:40:49.265Z,20.23
2023-02-08T14:43:18.167Z,20.77
2023-02-08T14:45:45.983Z,21.47
2023-02-08T14:48:27.192Z,20.40
2023-02-08T14:50:59.592Z,18.87
2023-02-08T14:53:32.577Z,22.13
2023-02-08T14:56:17.134Z,21.87
2023-02-08T14:58:45.247Z,20.77
2023-02-08T15:01:34.278Z,21.37
2023-02-08T15:04:02.411Z,21.03
2023-02-08T15:06:49.902Z,23.27
2023-02-08T15:09:21.318Z,21.47
2023-02-08T15:12:08.962Z,20.47
2023-02-08T15:14:36.005Z,23.10
2023-02-08T15:17:02.434Z,21.30
2023-02-08T15:19:30.927Z,21.63
2023-02-08T15:22:16.031Z,21.67
2023-02-08T15:24:49.053Z,20.30
2023-02-08T15:27:24.842Z,21.60
2023-02-08T15:29:51.678Z,21.63
2023-02-08T15:32:20.302Z,21.90
2023-02-08T15:34:49.856Z,21.03
2023-02-08T15:37:16.739Z,21.53
2023-02-08T15:39:43.118Z,21.87
2023-02-08T15:42:20.105Z,20.67
2023-02-08T15:44:46.704Z,22.43
2023-02-08T15:47:17.572Z,21.60
2023-02-08T15:49:45.906Z,20.80
2023-02-08T15:52:16.555Z,22.07
2023-02-08T15:57:16.415Z,20.07
2023-02-08T15:59:45.148Z,19.70
2023-02-08T16:02:27.924Z,20.53
2023-02-08T16:05:18.905Z,19.03
2023-02-08T16:07:45.257Z,18.90
2023-02-08T16:10:24.202Z,19.83
2023-02-08T16:12:55.518Z,21.13
2023-02-08T16:15:33.538Z,20.37
2023-02-08T16:17:59.334Z,19.13
2023-02-08T16:20:33.680Z,19.13
2023-02-08T16:23:18.586Z,18.83
2023-02-08T16:25:45.143Z,21.20
2023-02-08T16:28:31.616Z,22.17
2023-02-08T16:30:58.971Z,22.93
2023-02-08T16:33:25.356Z,20.97
2023-02-08T16:35:51.546Z,21.10
2023-02-08T16:38:21.408Z,20.40
2023-02-08T16:40:49.574Z,19.80
2023-02-08T16:43:17.001Z,20.43
2023-02-08T16:45:43.304Z,21.37
2023-02-08T16:48:34.408Z,21.17
2023-02-08T16:51:00.957Z,20.80
2023-02-08T16:53:41.374Z,21.80
2023-02-08T16:56:08.514Z,20.70
2023-02-08T16:58:34.596Z,20.80
2023-02-08T17:01:00.647Z,18.93
2023-02-08T17:03:27.036Z,20.23
2023-02-08T17:05:53.034Z,19.40
2023-02-08T17:08:20.549Z,20.37
2023-02-08T17:10:47.978Z,24.17
2023-02-08T17:13:20.409Z,21.83
2023-02-08T17:15:48.311Z,20.40
2023-02-08T17:18:14.440Z,21.30
2023-02-08T17:20:40.390Z,22.47
2023-02-08T17:23:06.304Z,21.30
2023-02-08T17:25:32.741Z,20.63
2023-02-08T17:28:03.744Z,21.90
2023-02-08T17:30:34.166Z,20.70
2023-02-08T17:33:00.303Z,22.02
2023-02-08T17:35:27.714Z,21.00
2023-02-08T17:37:54.289Z,22.50
2023-02-08T17:40:26.513Z,22.57
2023-02-08T17:42:53.370Z,22.10
2023-02-08T17:45:19.651Z,22.33
2023-02-08T17:47:45.948Z,19.97
2023-02-08T17:50:12.770Z,21.23
2023-02-08T17:52:39.162Z,20.37
2023-02-08T17:55:05.732Z,19.73
2023-02-08T17:57:32.381Z,20.10
2023-02-08T17:59:58.357Z,19.30
2023-02-08T18:02:24.554Z,19.73
2023-02-08T18:04:50.491Z,21.97
2023-02-08T18:07:16.476Z,20.60
2023-02-08T18:09:42.644Z,20.27
2023-02-08T18:12:08.526Z,19.77
2023-02-08T18:14:36.914Z,18.87
2023-02-08T18:17:02.885Z,22.10
2023-02-08T18:19:28.677Z,19.47
2023-02-08T18:21:54.509Z,20.73
2023-02-08T18:24:20.320Z,21.57
2023-02-08T18:26:46.221Z,20.73
2023-02-08T18:29:12.020Z,20.00
2023-02-08T18:31:38.450Z,22.80
2023-02-08T18:34:04.265Z,23.07
2023-02-08T18:36:30.417Z,22.07
2023-02-08T18:38:56.660Z,21.47
2023-02-08T18:41:24.528Z,21.37
2023-02-08T18:43:50.564Z,21.07
2023-02-08T18:46:18.603Z,22.10
2023-02-08T18:48:45.224Z,19.40
2023-02-08T18:51:11.730Z,20.53
2023-02-08T18:53:39.009Z,20.47
2023-02-08T18:56:05.786Z,19.80
2023-02-08T18:58:31.730Z,20.53
2023-02-08T19:01:08.294Z,19.53
2023-02-08T19:03:35.188Z,20.13
2023-02-08T19:06:09.601Z,21.07
2023-02-08T19:08:37.035Z,22.43
2023-02-08T19:11:04.234Z,19.87
2023-02-08T19:13:30.279Z,19.70
2023-02-08T19:15:56.148Z,18.93
2023-02-08T19:18:22.171Z,21.80
2023-02-08T19:20:48.063Z,21.50
2023-02-08T19:23:13.876Z,19.33
2023-02-08T19:25:39.664Z,20.47
2023-02-08T19:28:06.157Z,22.03
2023-02-08T19:30:32.242Z,20.07
2023-02-08T19:32:58.309Z,20.27
2023-02-08T19:35:30.285Z,23.97
2023-02-08T19:37:56.135Z,18.47
2023-02-08T19:40:23.596Z,20.33
2023-02-08T19:42:49.437Z,20.83
2023-02-08T19:45:15.286Z,20.57
2023-02-08T19:47:51.137Z,18.67
2023-02-08T19:50:17.637Z,18.53
2023-02-08T19:52:43.382Z,20.93
2023-02-08T19:55:09.413Z,17.60
2023-02-08T19:57:39.450Z,20.17
2023-02-08T20:00:11.317Z,19.48
2023-02-08T20:02:43.613Z,17.07
2023-02-08T20:05:09.347Z,15.80
2023-02-08T20:07:35.868Z,15.90
2023-02-08T20:10:01.939Z,16.07
2023-02-08T20:12:27.749Z,17.07
2023-02-08T20:14:53.700Z,16.93
2023-02-08T20:17:19.415Z,16.13
2023-02-08T20:19:45.140Z,15.60
2023-02-08T20:22:10.907Z,16.63
2023-02-08T20:24:36.633Z,15.33
2023-02-08T20:27:02.443Z,16.63
2023-02-08T20:29:28.925Z,13.57
2023-02-08T20:31:58.897Z,15.90
2023-02-08T20:34:24.692Z,14.73
2023-02-08T20:37:05.646Z,14.17
2023-02-08T20:39:32.839Z,14.53
2023-02-08T20:41:58.626Z,13.77
2023-02-08T20:44:24.426Z,16.47
2023-02-08T20:46:50.376Z,16.67
2023-02-08T20:49:21.482Z,13.67
2023-02-08T20:51:49.537Z,15.10
2023-02-08T20:54:17.440Z,13.77
2023-02-08T20:56:43.261Z,16.50
2023-02-08T20:59:13.072Z,13.73
2023-02-08T21:01:38.865Z,13.30
2023-02-08T21:04:05.311Z,14.83
2023-02-08T21:06:35.650Z,14.07
2023-02-08T21:09:03.684Z,12.48
2023-02-08T21:11:30.320Z,13.47
2023-02-08T21:13:56.766Z,13.10
2023-02-08T21:16:23.300Z,13.47
2023-02-08T21:18:49.175Z,13.23
2023-02-08T21:21:15.402Z,15.13
2023-02-08T21:23:41.915Z,13.77
2023-02-08T21:26:08.298Z,12.63
2023-02-08T21:28:34.588Z,13.57
2023-02-08T21:31:02.545Z,14.40
2023-02-08T21:33:28.876Z,15.03
2023-02-08T21:35:54.800Z,12.97
2023-02-08T21:38:20.847Z,14.37
2023-02-08T21:40:46.954Z,13.23
2023-02-08T21:43:13.195Z,13.07
2023-02-08T21:45:39.420Z,12.63
2023-02-08T21:48:05.379Z,12.33
2023-02-08T21:50:49.845Z,12.73
2023-02-08T21:53:34.627Z,11.80
2023-02-08T21:56:00.349Z,12.23
2023-02-08T21:58:26.228Z,13.80
2023-02-08T22:00:52.011Z,12.33
2023-02-08T22:03:17.869Z,12.83
2023-02-08T22:06:04.507Z,11.73
2023-02-08T22:08:30.381Z,13.03
2023-02-08T22:11:03.918Z,12.17
2023-02-08T22:13:31.098Z,12.70
2023-02-08T22:15:58.087Z,14.73
2023-02-08T22:18:24.011Z,11.90
2023-02-08T22:20:52.423Z,13.30
2023-02-08T22:23:18.149Z,13.47
2023-02-08T22:25:43.983Z,15.20
2023-02-08T22:28:09.984Z,12.57
2023-02-08T22:30:36.296Z,13.17
2023-02-08T22:33:02.203Z,12.40
2023-02-08T22:35:27.991Z,11.87
2023-02-08T22:37:53.712Z,12.33
2023-02-08T22:40:19.483Z,12.23
2023-02-08T22:42:45.262Z,12.63
2023-02-08T22:45:11.051Z,11.53
2023-02-08T22:47:36.859Z,11.63
2023-02-08T22:50:03.598Z,13.33
2023-02-08T22:52:29.801Z,12.40
2023-02-08T22:54:55.747Z,12.13
2023-02-08T22:57:21.496Z,12.07
2023-02-08T22:59:47.238Z,13.10
2023-02-08T23:02:16.419Z,12.73
2023-02-08T23:04:42.148Z,12.37
2023-02-08T23:07:07.942Z,11.10
2023-02-08T23:09:33.665Z,14.57
2023-02-08T23:11:59.458Z,12.93
2023-02-08T23:14:25.433Z,12.60
2023-02-08T23:16:51.163Z,12.33
2023-02-08T23:19:17.207Z,11.60
2023-02-08T23:21:43.247Z,12.33
2023-02-08T23:24:09.457Z,11.30
2023-02-08T23:26:35.472Z,12.33
2023-02-08T23:29:01.470Z,13.30
2023-02-08T23:31:27.592Z,12.23
2023-02-08T23:33:53.710Z,12.90
2023-02-08T23:36:20.650Z,12.50
2023-02-08T23:38:46.406Z,12.57
2023-02-08T23:41:16.752Z,12.70
2023-02-08T23:43:42.970Z,13.55
2023-02-08T23:46:10.671Z,12.43
2023-02-08T23:48:39.022Z,12.27
2023-02-08T23:51:05.427Z,12.07
2023-02-08T23:53:31.616Z,14.13
2023-02-08T23:56:10.880Z,13.90
2023-02-08T23:58:36.744Z,12.67
